sensor_id;sensor_type;location;lat;lon;timestamp;temperature;humidity
5429;DHT22;2737;52.386;9.980;2023-04-19T00:02:05;9.00;99.90
5429;DHT22;2737;52.386;9.980;2023-04-19T00:04:33;9.00;99.90
5429;DHT22;2737;52.386;9.980;2023-04-19T00:07:04;9.00;99.90
5429;DHT22;2737;52.386;9.980;2023-04-19T00:09:31;9.00;99.90
5429;DHT22;2737;52.386;9.980;2023-04-19T00:11:58;8.90;99.90
5429;DHT22;2737;52.386;9.980;2023-04-19T00:14:25;8.80;99.90
5429;DHT22;2737;52.386;9.980;2023-04-19T00:16:52;8.70;99.90
5429;DHT22;2737;52.386;9.980;2023-04-19T00:19:19;8.70;99.90
5429;DHT22;2737;52.386;9.980;2023-04-19T00:21:48;8.60;99.90
5429;DHT22;2737;52.386;9.980;2023-04-19T00:24:16;8.60;99.90
5429;DHT22;2737;52.386;9.980;2023-04-19T00:26:43;8.50;99.90
5429;DHT22;2737;52.386;9.980;2023-04-19T00:29:10;8.40;99.90
5429;DHT22;2737;52.386;9.980;2023-04-19T00:31:37;8.20;99.90
5429;DHT22;2737;52.386;9.980;2023-04-19T00:34:05;8.10;99.90
5429;DHT22;2737;52.386;9.980;2023-04-19T00:36:32;8.10;99.90
5429;DHT22;2737;52.386;9.980;2023-04-19T00:38:59;8.00;99.90
5429;DHT22;2737;52.386;9.980;2023-04-19T00:41:28;7.80;99.90
5429;DHT22;2737;52.386;9.980;2023-04-19T00:43:55;7.70;99.90
5429;DHT22;2737;52.386;9.980;2023-04-19T00:46:22;7.70;99.90
5429;DHT22;2737;52.386;9.980;2023-04-19T00:48:49;7.60;99.90
5429;DHT22;2737;52.386;9.980;2023-04-19T00:51:16;7.60;99.90
5429;DHT22;2737;52.386;9.980;2023-04-19T00:53:43;7.50;99.90
5429;DHT22;2737;52.386;9.980;2023-04-19T00:56:11;7.50;99.90
5429;DHT22;2737;52.386;9.980;2023-04-19T00:58:40;7.40;99.90
5429;DHT22;2737;52.386;9.980;2023-04-19T01:01:07;7.30;99.90
5429;DHT22;2737;52.386;9.980;2023-04-19T01:03:35;7.30;99.90
5429;DHT22;2737;52.386;9.980;2023-04-19T01:06:02;7.20;99.90
5429;DHT22;2737;52.386;9.980;2023-04-19T01:08:29;7.10;99.90
5429;DHT22;2737;52.386;9.980;2023-04-19T01:10:56;7.10;99.90
5429;DHT22;2737;52.386;9.980;2023-04-19T01:13:23;7.00;99.90
5429;DHT22;2737;52.386;9.980;2023-04-19T01:15:54;7.00;99.90
5429;DHT22;2737;52.386;9.980;2023-04-19T01:18:21;6.90;99.90
5429;DHT22;2737;52.386;9.980;2023-04-19T01:20:50;6.90;99.90
5429;DHT22;2737;52.386;9.980;2023-04-19T01:23:18;6.80;99.90
5429;DHT22;2737;52.386;9.980;2023-04-19T01:25:45;6.80;99.90
5429;DHT22;2737;52.386;9.980;2023-04-19T01:28:12;6.70;99.90
5429;DHT22;2737;52.386;9.980;2023-04-19T01:30:40;6.70;99.90
5429;DHT22;2737;52.386;9.980;2023-04-19T01:33:07;6.60;99.90
5429;DHT22;2737;52.386;9.980;2023-04-19T01:35:34;6.60;99.90
5429;DHT22;2737;52.386;9.980;2023-04-19T01:38:01;6.60;99.90
5429;DHT22;2737;52.386;9.980;2023-04-19T01:40:29;6.50;99.90
5429;DHT22;2737;52.386;9.980;2023-04-19T01:42:56;6.40;99.90
5429;DHT22;2737;52.386;9.980;2023-04-19T01:45:23;6.40;99.90
5429;DHT22;2737;52.386;9.980;2023-04-19T01:47:50;6.40;99.90
5429;DHT22;2737;52.386;9.980;2023-04-19T01:50:17;6.30;99.90
5429;DHT22;2737;52.386;9.980;2023-04-19T01:52:44;6.30;99.90
5429;DHT22;2737;52.386;9.980;2023-04-19T01:55:11;6.20;99.90
5429;DHT22;2737;52.386;9.980;2023-04-19T01:57:40;6.20;99.90
5429;DHT22;2737;52.386;9.980;2023-04-19T02:00:08;6.10;99.90
5429;DHT22;2737;52.386;9.980;2023-04-19T02:02:36;6.10;99.90
5429;DHT22;2737;52.386;9.980;2023-04-19T02:05:04;6.10;99.90
5429;DHT22;2737;52.386;9.980;2023-04-19T02:07:31;6.00;99.90
5429;DHT22;2737;52.386;9.980;2023-04-19T02:09:58;6.00;99.90
5429;DHT22;2737;52.386;9.980;2023-04-19T02:12:26;5.90;99.90
5429;DHT22;2737;52.386;9.980;2023-04-19T02:14:55;5.90;99.90
5429;DHT22;2737;52.386;9.980;2023-04-19T02:17:23;5.90;99.90
5429;DHT22;2737;52.386;9.980;2023-04-19T02:19:50;5.80;99.90
5429;DHT22;2737;52.386;9.980;2023-04-19T02:22:17;5.80;99.90
5429;DHT22;2737;52.386;9.980;2023-04-19T02:24:45;5.70;99.90
5429;DHT22;2737;52.386;9.980;2023-04-19T02:27:12;5.70;99.90
5429;DHT22;2737;52.386;9.980;2023-04-19T02:29:39;5.60;99.90
5429;DHT22;2737;52.386;9.980;2023-04-19T02:32:07;5.60;99.90
5429;DHT22;2737;52.386;9.980;2023-04-19T02:34:34;5.60;99.90
5429;DHT22;2737;52.386;9.980;2023-04-19T02:37:02;5.60;99.90
5429;DHT22;2737;52.386;9.980;2023-04-19T02:39:29;5.50;99.90
5429;DHT22;2737;52.386;9.980;2023-04-19T02:41:56;5.50;99.90
5429;DHT22;2737;52.386;9.980;2023-04-19T02:44:23;5.50;99.90
5429;DHT22;2737;52.386;9.980;2023-04-19T02:46:51;5.50;99.90
5429;DHT22;2737;52.386;9.980;2023-04-19T02:49:20;5.40;99.90
5429;DHT22;2737;52.386;9.980;2023-04-19T02:51:49;5.40;99.90
5429;DHT22;2737;52.386;9.980;2023-04-19T02:54:16;5.40;99.90
5429;DHT22;2737;52.386;9.980;2023-04-19T02:56:43;5.30;99.90
5429;DHT22;2737;52.386;9.980;2023-04-19T02:59:10;5.30;99.90
5429;DHT22;2737;52.386;9.980;2023-04-19T03:01:37;5.30;99.90
5429;DHT22;2737;52.386;9.980;2023-04-19T03:04:04;5.30;99.90
5429;DHT22;2737;52.386;9.980;2023-04-19T03:06:32;5.30;99.90
5429;DHT22;2737;52.386;9.980;2023-04-19T03:08:59;5.20;99.90
5429;DHT22;2737;52.386;9.980;2023-04-19T03:11:26;5.20;99.90
5429;DHT22;2737;52.386;9.980;2023-04-19T03:13:53;5.10;99.90
5429;DHT22;2737;52.386;9.980;2023-04-19T03:16:20;5.10;99.90
5429;DHT22;2737;52.386;9.980;2023-04-19T03:18:47;5.10;99.90
5429;DHT22;2737;52.386;9.980;2023-04-19T03:21:14;5.10;99.90
5429;DHT22;2737;52.386;9.980;2023-04-19T03:23:43;5.10;99.90
5429;DHT22;2737;52.386;9.980;2023-04-19T03:26:10;5.10;99.90
5429;DHT22;2737;52.386;9.980;2023-04-19T03:28:37;5.00;99.90
5429;DHT22;2737;52.386;9.980;2023-04-19T03:31:04;5.00;99.90
5429;DHT22;2737;52.386;9.980;2023-04-19T03:33:31;5.00;99.90
5429;DHT22;2737;52.386;9.980;2023-04-19T03:35:58;5.00;99.90
5429;DHT22;2737;52.386;9.980;2023-04-19T03:38:25;5.00;99.90
5429;DHT22;2737;52.386;9.980;2023-04-19T03:40:53;5.00;99.90
5429;DHT22;2737;52.386;9.980;2023-04-19T03:43:22;4.90;99.90
5429;DHT22;2737;52.386;9.980;2023-04-19T03:45:49;4.90;99.90
5429;DHT22;2737;52.386;9.980;2023-04-19T03:48:16;4.90;99.90
5429;DHT22;2737;52.386;9.980;2023-04-19T03:50:43;4.80;99.90
5429;DHT22;2737;52.386;9.980;2023-04-19T03:53:10;4.80;99.90
5429;DHT22;2737;52.386;9.980;2023-04-19T03:55:37;4.80;99.90
5429;DHT22;2737;52.386;9.980;2023-04-19T03:58:06;4.80;99.90
5429;DHT22;2737;52.386;9.980;2023-04-19T04:00:34;4.80;99.90
5429;DHT22;2737;52.386;9.980;2023-04-19T04:03:01;4.90;99.90
5429;DHT22;2737;52.386;9.980;2023-04-19T04:05:28;4.80;99.90
5429;DHT22;2737;52.386;9.980;2023-04-19T04:07:55;4.80;99.90
5429;DHT22;2737;52.386;9.980;2023-04-19T04:10:22;4.80;99.90
5429;DHT22;2737;52.386;9.980;2023-04-19T04:12:49;4.80;99.90
5429;DHT22;2737;52.386;9.980;2023-04-19T04:15:18;4.80;99.90
5429;DHT22;2737;52.386;9.980;2023-04-19T04:17:45;4.80;99.90
5429;DHT22;2737;52.386;9.980;2023-04-19T04:20:12;4.80;99.90
5429;DHT22;2737;52.386;9.980;2023-04-19T04:22:40;4.70;99.90
5429;DHT22;2737;52.386;9.980;2023-04-19T04:25:08;4.80;99.90
5429;DHT22;2737;52.386;9.980;2023-04-19T04:27:36;4.80;99.90
5429;DHT22;2737;52.386;9.980;2023-04-19T04:30:04;4.80;99.90
5429;DHT22;2737;52.386;9.980;2023-04-19T04:32:33;4.90;99.90
5429;DHT22;2737;52.386;9.980;2023-04-19T04:35:01;4.90;99.90
5429;DHT22;2737;52.386;9.980;2023-04-19T04:37:28;4.90;99.90
5429;DHT22;2737;52.386;9.980;2023-04-19T04:39:55;4.90;99.90
5429;DHT22;2737;52.386;9.980;2023-04-19T04:42:22;4.80;99.90
5429;DHT22;2737;52.386;9.980;2023-04-19T04:44:50;4.80;99.90
5429;DHT22;2737;52.386;9.980;2023-04-19T04:47:17;4.70;99.90
5429;DHT22;2737;52.386;9.980;2023-04-19T04:49:46;4.70;99.90
5429;DHT22;2737;52.386;9.980;2023-04-19T04:52:13;4.70;99.90
5429;DHT22;2737;52.386;9.980;2023-04-19T04:54:40;4.60;99.90
5429;DHT22;2737;52.386;9.980;2023-04-19T04:57:07;4.70;99.90
5429;DHT22;2737;52.386;9.980;2023-04-19T04:59:34;4.70;99.90
5429;DHT22;2737;52.386;9.980;2023-04-19T05:02:01;4.70;99.90
5429;DHT22;2737;52.386;9.980;2023-04-19T05:04:29;4.70;99.90
5429;DHT22;2737;52.386;9.980;2023-04-19T05:06:57;4.60;99.90
5429;DHT22;2737;52.386;9.980;2023-04-19T05:09:24;4.60;99.90
5429;DHT22;2737;52.386;9.980;2023-04-19T05:11:51;4.80;99.90
5429;DHT22;2737;52.386;9.980;2023-04-19T05:14:18;4.90;99.90
5429;DHT22;2737;52.386;9.980;2023-04-19T05:16:45;5.00;99.90
5429;DHT22;2737;52.386;9.980;2023-04-19T05:19:12;5.20;99.90
5429;DHT22;2737;52.386;9.980;2023-04-19T05:21:39;5.30;99.90
5429;DHT22;2737;52.386;9.980;2023-04-19T05:24:08;5.50;99.90
5429;DHT22;2737;52.386;9.980;2023-04-19T05:26:35;5.60;99.90
5429;DHT22;2737;52.386;9.980;2023-04-19T05:29:02;5.70;99.90
5429;DHT22;2737;52.386;9.980;2023-04-19T05:31:29;5.90;99.90
5429;DHT22;2737;52.386;9.980;2023-04-19T05:33:57;6.00;99.90
5429;DHT22;2737;52.386;9.980;2023-04-19T05:36:24;6.10;99.90
5429;DHT22;2737;52.386;9.980;2023-04-19T05:38:51;6.30;99.90
5429;DHT22;2737;52.386;9.980;2023-04-19T05:41:19;6.40;99.90
5429;DHT22;2737;52.386;9.980;2023-04-19T05:43:46;6.40;99.90
5429;DHT22;2737;52.386;9.980;2023-04-19T05:46:16;6.50;99.90
5429;DHT22;2737;52.386;9.980;2023-04-19T05:48:43;6.50;99.90
5429;DHT22;2737;52.386;9.980;2023-04-19T05:51:11;6.60;99.90
5429;DHT22;2737;52.386;9.980;2023-04-19T05:53:38;6.70;99.90
5429;DHT22;2737;52.386;9.980;2023-04-19T05:56:06;6.90;99.90
5429;DHT22;2737;52.386;9.980;2023-04-19T05:58:34;7.00;99.90
5429;DHT22;2737;52.386;9.980;2023-04-19T06:01:01;7.20;99.90
5429;DHT22;2737;52.386;9.980;2023-04-19T06:03:29;7.50;99.90
5429;DHT22;2737;52.386;9.980;2023-04-19T06:05:56;7.50;99.90
5429;DHT22;2737;52.386;9.980;2023-04-19T06:08:23;7.60;99.90
5429;DHT22;2737;52.386;9.980;2023-04-19T06:10:50;7.70;99.90
5429;DHT22;2737;52.386;9.980;2023-04-19T06:13:18;7.80;99.90
5429;DHT22;2737;52.386;9.980;2023-04-19T06:15:47;8.00;99.90
5429;DHT22;2737;52.386;9.980;2023-04-19T06:18:14;8.10;99.90
5429;DHT22;2737;52.386;9.980;2023-04-19T06:20:41;8.20;99.90
5429;DHT22;2737;52.386;9.980;2023-04-19T06:23:08;8.30;99.90
5429;DHT22;2737;52.386;9.980;2023-04-19T06:25:37;8.40;99.90
5429;DHT22;2737;52.386;9.980;2023-04-19T06:28:04;8.60;99.90
5429;DHT22;2737;52.386;9.980;2023-04-19T06:30:31;8.60;99.90
5429;DHT22;2737;52.386;9.980;2023-04-19T06:33:00;8.60;99.90
5429;DHT22;2737;52.386;9.980;2023-04-19T06:35:27;8.60;99.90
5429;DHT22;2737;52.386;9.980;2023-04-19T06:37:54;8.40;99.90
5429;DHT22;2737;52.386;9.980;2023-04-19T06:40:21;8.50;99.90
5429;DHT22;2737;52.386;9.980;2023-04-19T06:42:48;8.50;99.90
5429;DHT22;2737;52.386;9.980;2023-04-19T06:45:15;8.40;99.90
5429;DHT22;2737;52.386;9.980;2023-04-19T06:47:42;8.50;99.90
5429;DHT22;2737;52.386;9.980;2023-04-19T06:50:10;8.70;99.90
5429;DHT22;2737;52.386;9.980;2023-04-19T06:52:38;8.70;99.90
5429;DHT22;2737;52.386;9.980;2023-04-19T06:55:05;8.70;99.90
5429;DHT22;2737;52.386;9.980;2023-04-19T06:57:32;8.70;99.90
5429;DHT22;2737;52.386;9.980;2023-04-19T07:00:00;8.80;99.90
5429;DHT22;2737;52.386;9.980;2023-04-19T07:02:27;9.00;99.90
5429;DHT22;2737;52.386;9.980;2023-04-19T07:04:54;9.00;99.90
5429;DHT22;2737;52.386;9.980;2023-04-19T07:07:22;9.10;99.90
5429;DHT22;2737;52.386;9.980;2023-04-19T07:09:49;8.80;99.90
5429;DHT22;2737;52.386;9.980;2023-04-19T07:12:16;9.10;99.90
5429;DHT22;2737;52.386;9.980;2023-04-19T07:14:43;9.00;99.90
5429;DHT22;2737;52.386;9.980;2023-04-19T07:17:10;9.10;99.90
5429;DHT22;2737;52.386;9.980;2023-04-19T07:19:38;9.40;99.90
5429;DHT22;2737;52.386;9.980;2023-04-19T07:22:05;9.50;99.90
5429;DHT22;2737;52.386;9.980;2023-04-19T07:24:33;9.70;99.90
5429;DHT22;2737;52.386;9.980;2023-04-19T07:27:00;9.70;99.90
5429;DHT22;2737;52.386;9.980;2023-04-19T07:29:27;9.80;99.90
5429;DHT22;2737;52.386;9.980;2023-04-19T07:31:54;10.00;99.90
5429;DHT22;2737;52.386;9.980;2023-04-19T07:34:24;10.10;99.90
5429;DHT22;2737;52.386;9.980;2023-04-19T07:36:51;10.10;99.90
5429;DHT22;2737;52.386;9.980;2023-04-19T07:39:18;10.10;99.90
5429;DHT22;2737;52.386;9.980;2023-04-19T07:41:46;10.30;99.90
5429;DHT22;2737;52.386;9.980;2023-04-19T07:44:13;10.10;99.90
5429;DHT22;2737;52.386;9.980;2023-04-19T07:46:42;10.10;99.90
5429;DHT22;2737;52.386;9.980;2023-04-19T07:49:09;10.00;99.90
5429;DHT22;2737;52.386;9.980;2023-04-19T07:51:36;10.00;99.90
5429;DHT22;2737;52.386;9.980;2023-04-19T07:54:03;10.10;99.90
5429;DHT22;2737;52.386;9.980;2023-04-19T07:56:30;10.20;99.90
5429;DHT22;2737;52.386;9.980;2023-04-19T07:58:59;10.30;99.90
5429;DHT22;2737;52.386;9.980;2023-04-19T08:01:27;10.30;99.90
5429;DHT22;2737;52.386;9.980;2023-04-19T08:03:54;10.30;99.90
5429;DHT22;2737;52.386;9.980;2023-04-19T08:06:21;10.40;99.30
5429;DHT22;2737;52.386;9.980;2023-04-19T08:08:48;10.50;99.60
5429;DHT22;2737;52.386;9.980;2023-04-19T08:11:15;10.50;99.00
5429;DHT22;2737;52.386;9.980;2023-04-19T08:13:42;10.40;99.00
5429;DHT22;2737;52.386;9.980;2023-04-19T08:16:11;10.50;98.90
5429;DHT22;2737;52.386;9.980;2023-04-19T08:18:38;10.60;98.40
5429;DHT22;2737;52.386;9.980;2023-04-19T08:21:05;10.60;98.00
5429;DHT22;2737;52.386;9.980;2023-04-19T08:23:32;10.60;97.20
5429;DHT22;2737;52.386;9.980;2023-04-19T08:25:59;10.60;97.50
5429;DHT22;2737;52.386;9.980;2023-04-19T08:28:26;10.60;98.30
5429;DHT22;2737;52.386;9.980;2023-04-19T08:30:53;10.70;97.10
5429;DHT22;2737;52.386;9.980;2023-04-19T08:33:22;10.50;96.40
5429;DHT22;2737;52.386;9.980;2023-04-19T08:35:49;10.30;97.10
5429;DHT22;2737;52.386;9.980;2023-04-19T08:38:16;10.50;97.50
5429;DHT22;2737;52.386;9.980;2023-04-19T08:40:46;10.50;96.70
5429;DHT22;2737;52.386;9.980;2023-04-19T08:43:18;10.60;97.50
5429;DHT22;2737;52.386;9.980;2023-04-19T08:45:46;10.90;97.80
5429;DHT22;2737;52.386;9.980;2023-04-19T08:48:14;11.00;97.70
5429;DHT22;2737;52.386;9.980;2023-04-19T08:50:43;11.10;97.70
5429;DHT22;2737;52.386;9.980;2023-04-19T08:53:11;11.10;95.20
5429;DHT22;2737;52.386;9.980;2023-04-19T08:55:40;11.00;95.10
5429;DHT22;2737;52.386;9.980;2023-04-19T08:58:07;11.00;95.10
5429;DHT22;2737;52.386;9.980;2023-04-19T09:00:37;11.10;95.50
5429;DHT22;2737;52.386;9.980;2023-04-19T09:03:06;11.00;94.80
5429;DHT22;2737;52.386;9.980;2023-04-19T09:05:33;11.00;95.30
5429;DHT22;2737;52.386;9.980;2023-04-19T09:08:23;11.00;93.60
5429;DHT22;2737;52.386;9.980;2023-04-19T09:10:55;11.00;94.10
5429;DHT22;2737;52.386;9.980;2023-04-19T09:13:22;11.10;93.90
5429;DHT22;2737;52.386;9.980;2023-04-19T09:15:50;11.10;93.20
5429;DHT22;2737;52.386;9.980;2023-04-19T09:18:18;11.20;92.80
5429;DHT22;2737;52.386;9.980;2023-04-19T09:20:46;11.20;91.70
5429;DHT22;2737;52.386;9.980;2023-04-19T09:23:14;11.20;91.60
5429;DHT22;2737;52.386;9.980;2023-04-19T09:25:51;11.20;91.70
5429;DHT22;2737;52.386;9.980;2023-04-19T09:28:19;11.30;92.60
5429;DHT22;2737;52.386;9.980;2023-04-19T09:30:46;11.40;92.20
5429;DHT22;2737;52.386;9.980;2023-04-19T09:33:32;11.40;91.70
5429;DHT22;2737;52.386;9.980;2023-04-19T09:36:00;11.30;90.10
5429;DHT22;2737;52.386;9.980;2023-04-19T09:38:27;11.30;90.90
5429;DHT22;2737;52.386;9.980;2023-04-19T09:41:06;11.40;90.70
5429;DHT22;2737;52.386;9.980;2023-04-19T09:43:33;11.50;91.20
5429;DHT22;2737;52.386;9.980;2023-04-19T09:46:00;11.50;90.80
5429;DHT22;2737;52.386;9.980;2023-04-19T09:48:28;11.40;90.80
5429;DHT22;2737;52.386;9.980;2023-04-19T09:50:57;11.50;92.00
5429;DHT22;2737;52.386;9.980;2023-04-19T09:53:25;11.60;91.40
5429;DHT22;2737;52.386;9.980;2023-04-19T09:55:52;11.60;91.60
5429;DHT22;2737;52.386;9.980;2023-04-19T09:58:21;11.60;90.80
5429;DHT22;2737;52.386;9.980;2023-04-19T10:00:48;11.50;90.60
5429;DHT22;2737;52.386;9.980;2023-04-19T10:03:18;11.50;90.80
5429;DHT22;2737;52.386;9.980;2023-04-19T10:05:46;11.50;90.10
5429;DHT22;2737;52.386;9.980;2023-04-19T10:08:13;11.60;90.70
5429;DHT22;2737;52.386;9.980;2023-04-19T10:10:42;11.80;89.50
5429;DHT22;2737;52.386;9.980;2023-04-19T10:13:11;11.90;85.40
5429;DHT22;2737;52.386;9.980;2023-04-19T10:15:42;12.00;85.60
5429;DHT22;2737;52.386;9.980;2023-04-19T10:18:09;12.00;84.80
5429;DHT22;2737;52.386;9.980;2023-04-19T10:20:41;12.10;82.40
5429;DHT22;2737;52.386;9.980;2023-04-19T10:23:14;12.10;81.60
5429;DHT22;2737;52.386;9.980;2023-04-19T10:25:45;12.20;80.30
5429;DHT22;2737;52.386;9.980;2023-04-19T10:28:12;12.10;76.40
5429;DHT22;2737;52.386;9.980;2023-04-19T10:30:52;12.20;75.90
5429;DHT22;2737;52.386;9.980;2023-04-19T10:33:24;12.20;74.70
5429;DHT22;2737;52.386;9.980;2023-04-19T10:35:54;12.40;76.70
5429;DHT22;2737;52.386;9.980;2023-04-19T10:38:35;12.40;76.00
5429;DHT22;2737;52.386;9.980;2023-04-19T10:41:02;12.30;74.10
5429;DHT22;2737;52.386;9.980;2023-04-19T10:43:30;12.40;75.10
5429;DHT22;2737;52.386;9.980;2023-04-19T10:46:01;12.40;72.40
5429;DHT22;2737;52.386;9.980;2023-04-19T10:48:38;12.20;71.70
5429;DHT22;2737;52.386;9.980;2023-04-19T10:51:12;12.20;71.90
5429;DHT22;2737;52.386;9.980;2023-04-19T10:53:45;12.30;73.20
5429;DHT22;2737;52.386;9.980;2023-04-19T10:56:12;12.40;73.40
5429;DHT22;2737;52.386;9.980;2023-04-19T10:59:11;12.50;73.00
5429;DHT22;2737;52.386;9.980;2023-04-19T11:01:52;12.50;73.90
5429;DHT22;2737;52.386;9.980;2023-04-19T11:04:22;12.50;74.20
5429;DHT22;2737;52.386;9.980;2023-04-19T11:06:59;12.60;77.00
5429;DHT22;2737;52.386;9.980;2023-04-19T11:09:29;12.80;77.90
5429;DHT22;2737;52.386;9.980;2023-04-19T11:12:01;12.80;76.90
5429;DHT22;2737;52.386;9.980;2023-04-19T11:14:30;12.70;77.40
5429;DHT22;2737;52.386;9.980;2023-04-19T11:16:59;12.80;76.30
5429;DHT22;2737;52.386;9.980;2023-04-19T11:19:26;12.90;76.20
5429;DHT22;2737;52.386;9.980;2023-04-19T11:21:57;12.70;73.00
5429;DHT22;2737;52.386;9.980;2023-04-19T11:24:25;12.70;74.80
5429;DHT22;2737;52.386;9.980;2023-04-19T11:26:55;12.70;73.40
5429;DHT22;2737;52.386;9.980;2023-04-19T11:29:22;12.60;74.30
5429;DHT22;2737;52.386;9.980;2023-04-19T11:31:49;12.60;75.10
5429;DHT22;2737;52.386;9.980;2023-04-19T11:34:21;12.60;72.70
5429;DHT22;2737;52.386;9.980;2023-04-19T11:36:49;12.60;71.70
5429;DHT22;2737;52.386;9.980;2023-04-19T11:39:16;12.60;72.20
5429;DHT22;2737;52.386;9.980;2023-04-19T11:41:43;12.60;72.90
5429;DHT22;2737;52.386;9.980;2023-04-19T11:44:15;12.60;72.40
5429;DHT22;2737;52.386;9.980;2023-04-19T11:46:59;12.60;74.90
5429;DHT22;2737;52.386;9.980;2023-04-19T11:49:30;12.60;75.00
5429;DHT22;2737;52.386;9.980;2023-04-19T11:51:58;12.60;75.60
5429;DHT22;2737;52.386;9.980;2023-04-19T11:54:25;12.60;75.60
5429;DHT22;2737;52.386;9.980;2023-04-19T11:56:59;12.50;74.80
5429;DHT22;2737;52.386;9.980;2023-04-19T11:59:28;12.50;74.30
5429;DHT22;2737;52.386;9.980;2023-04-19T12:01:55;12.50;74.70
5429;DHT22;2737;52.386;9.980;2023-04-19T12:04:22;12.50;74.40
5429;DHT22;2737;52.386;9.980;2023-04-19T12:06:58;12.60;74.40
5429;DHT22;2737;52.386;9.980;2023-04-19T12:09:25;12.40;74.80
5429;DHT22;2737;52.386;9.980;2023-04-19T12:11:52;12.30;73.50
5429;DHT22;2737;52.386;9.980;2023-04-19T12:14:20;12.50;76.40
5429;DHT22;2737;52.386;9.980;2023-04-19T12:17:06;12.60;75.40
5429;DHT22;2737;52.386;9.980;2023-04-19T12:19:35;12.40;73.60
5429;DHT22;2737;52.386;9.980;2023-04-19T12:22:14;12.50;77.00
5429;DHT22;2737;52.386;9.980;2023-04-19T12:24:41;12.70;75.00
5429;DHT22;2737;52.386;9.980;2023-04-19T12:27:09;12.80;75.20
5429;DHT22;2737;52.386;9.980;2023-04-19T12:29:37;12.90;76.50
5429;DHT22;2737;52.386;9.980;2023-04-19T12:32:05;13.20;78.20
5429;DHT22;2737;52.386;9.980;2023-04-19T12:34:32;13.30;76.80
5429;DHT22;2737;52.386;9.980;2023-04-19T12:36:59;13.10;77.40
5429;DHT22;2737;52.386;9.980;2023-04-19T12:39:29;13.10;77.80
5429;DHT22;2737;52.386;9.980;2023-04-19T12:41:56;12.90;76.90
5429;DHT22;2737;52.386;9.980;2023-04-19T12:44:23;12.70;76.90
5429;DHT22;2737;52.386;9.980;2023-04-19T12:46:50;12.60;77.20
5429;DHT22;2737;52.386;9.980;2023-04-19T12:49:21;12.70;78.20
5429;DHT22;2737;52.386;9.980;2023-04-19T12:51:49;12.70;76.10
5429;DHT22;2737;52.386;9.980;2023-04-19T12:54:16;12.70;75.40
5429;DHT22;2737;52.386;9.980;2023-04-19T12:56:45;12.70;75.90
5429;DHT22;2737;52.386;9.980;2023-04-19T12:59:11;13.00;77.10
5429;DHT22;2737;52.386;9.980;2023-04-19T13:01:39;13.00;77.70
5429;DHT22;2737;52.386;9.980;2023-04-19T13:04:06;12.90;75.90
5429;DHT22;2737;52.386;9.980;2023-04-19T13:06:36;12.90;77.70
5429;DHT22;2737;52.386;9.980;2023-04-19T13:09:04;12.80;78.80
5429;DHT22;2737;52.386;9.980;2023-04-19T13:11:31;12.80;79.70
5429;DHT22;2737;52.386;9.980;2023-04-19T13:14:00;12.70;76.80
5429;DHT22;2737;52.386;9.980;2023-04-19T13:16:27;12.60;78.40
5429;DHT22;2737;52.386;9.980;2023-04-19T13:18:54;12.50;76.30
5429;DHT22;2737;52.386;9.980;2023-04-19T13:21:21;12.40;75.70
5429;DHT22;2737;52.386;9.980;2023-04-19T13:23:48;12.40;77.00
5429;DHT22;2737;52.386;9.980;2023-04-19T13:26:15;12.40;79.10
5429;DHT22;2737;52.386;9.980;2023-04-19T13:28:42;12.60;79.60
5429;DHT22;2737;52.386;9.980;2023-04-19T13:31:11;12.70;77.70
5429;DHT22;2737;52.386;9.980;2023-04-19T13:33:38;12.60;76.60
5429;DHT22;2737;52.386;9.980;2023-04-19T13:36:06;12.60;79.40
5429;DHT22;2737;52.386;9.980;2023-04-19T13:38:33;12.60;79.50
5429;DHT22;2737;52.386;9.980;2023-04-19T13:41:02;12.50;78.90
5429;DHT22;2737;52.386;9.980;2023-04-19T13:43:29;12.60;78.70
5429;DHT22;2737;52.386;9.980;2023-04-19T13:45:56;12.60;79.70
5429;DHT22;2737;52.386;9.980;2023-04-19T13:48:24;12.70;80.70
5429;DHT22;2737;52.386;9.980;2023-04-19T13:50:53;12.60;81.20
5429;DHT22;2737;52.386;9.980;2023-04-19T13:53:20;12.60;80.80
5429;DHT22;2737;52.386;9.980;2023-04-19T13:55:48;12.50;81.70
5429;DHT22;2737;52.386;9.980;2023-04-19T13:58:15;12.50;83.50
5429;DHT22;2737;52.386;9.980;2023-04-19T14:00:42;12.30;82.30
5429;DHT22;2737;52.386;9.980;2023-04-19T14:03:09;12.10;81.90
5429;DHT22;2737;52.386;9.980;2023-04-19T14:05:38;12.20;83.80
5429;DHT22;2737;52.386;9.980;2023-04-19T14:08:05;12.40;82.60
5429;DHT22;2737;52.386;9.980;2023-04-19T14:10:33;12.50;82.40
5429;DHT22;2737;52.386;9.980;2023-04-19T14:13:00;12.60;82.80
5429;DHT22;2737;52.386;9.980;2023-04-19T14:15:28;12.70;83.40
5429;DHT22;2737;52.386;9.980;2023-04-19T14:17:55;12.80;83.40
5429;DHT22;2737;52.386;9.980;2023-04-19T14:20:22;12.80;80.60
5429;DHT22;2737;52.386;9.980;2023-04-19T14:22:50;12.60;80.60
5429;DHT22;2737;52.386;9.980;2023-04-19T14:25:18;12.60;82.20
5429;DHT22;2737;52.386;9.980;2023-04-19T14:27:45;12.60;81.00
5429;DHT22;2737;52.386;9.980;2023-04-19T14:30:12;12.70;81.00
5429;DHT22;2737;52.386;9.980;2023-04-19T14:32:39;12.70;82.30
5429;DHT22;2737;52.386;9.980;2023-04-19T14:35:07;12.70;82.10
5429;DHT22;2737;52.386;9.980;2023-04-19T14:37:36;12.80;82.80
5429;DHT22;2737;52.386;9.980;2023-04-19T14:40:05;13.00;82.20
5429;DHT22;2737;52.386;9.980;2023-04-19T14:42:32;12.90;80.50
5429;DHT22;2737;52.386;9.980;2023-04-19T14:44:59;12.80;81.90
5429;DHT22;2737;52.386;9.980;2023-04-19T14:47:26;12.80;81.00
5429;DHT22;2737;52.386;9.980;2023-04-19T14:49:53;12.80;81.00
5429;DHT22;2737;52.386;9.980;2023-04-19T14:52:20;12.60;79.30
5429;DHT22;2737;52.386;9.980;2023-04-19T14:54:49;12.50;80.20
5429;DHT22;2737;52.386;9.980;2023-04-19T14:57:17;12.30;79.50
5429;DHT22;2737;52.386;9.980;2023-04-19T14:59:44;12.20;80.30
5429;DHT22;2737;52.386;9.980;2023-04-19T15:02:11;12.40;79.70
5429;DHT22;2737;52.386;9.980;2023-04-19T15:04:38;12.60;80.00
5429;DHT22;2737;52.386;9.980;2023-04-19T15:07:05;12.70;78.50
5429;DHT22;2737;52.386;9.980;2023-04-19T15:09:32;12.80;79.70
5429;DHT22;2737;52.386;9.980;2023-04-19T15:12:00;12.80;80.90
5429;DHT22;2737;52.386;9.980;2023-04-19T15:14:28;12.60;79.30
5429;DHT22;2737;52.386;9.980;2023-04-19T15:16:55;12.50;79.30
5429;DHT22;2737;52.386;9.980;2023-04-19T15:19:22;12.40;80.50
5429;DHT22;2737;52.386;9.980;2023-04-19T15:21:49;12.40;79.00
5429;DHT22;2737;52.386;9.980;2023-04-19T15:24:16;12.40;78.90
5429;DHT22;2737;52.386;9.980;2023-04-19T15:26:43;12.40;81.20
5429;DHT22;2737;52.386;9.980;2023-04-19T15:29:10;12.50;79.70
5429;DHT22;2737;52.386;9.980;2023-04-19T15:31:39;12.60;79.90
5429;DHT22;2737;52.386;9.980;2023-04-19T15:34:06;12.60;77.60
5429;DHT22;2737;52.386;9.980;2023-04-19T15:36:33;12.60;78.00
5429;DHT22;2737;52.386;9.980;2023-04-19T15:39:00;12.60;78.60
5429;DHT22;2737;52.386;9.980;2023-04-19T15:41:27;12.60;76.30
5429;DHT22;2737;52.386;9.980;2023-04-19T15:43:54;12.50;76.30
5429;DHT22;2737;52.386;9.980;2023-04-19T15:46:21;12.60;77.20
5429;DHT22;2737;52.386;9.980;2023-04-19T15:48:49;12.60;76.30
5429;DHT22;2737;52.386;9.980;2023-04-19T15:51:16;12.70;77.60
5429;DHT22;2737;52.386;9.980;2023-04-19T15:53:43;12.60;75.00
5429;DHT22;2737;52.386;9.980;2023-04-19T15:56:10;12.60;73.80
5429;DHT22;2737;52.386;9.980;2023-04-19T15:58:37;12.60;74.30
5429;DHT22;2737;52.386;9.980;2023-04-19T16:01:07;12.60;73.80
5429;DHT22;2737;52.386;9.980;2023-04-19T16:03:34;12.60;73.40
5429;DHT22;2737;52.386;9.980;2023-04-19T16:06:03;12.50;72.10
5429;DHT22;2737;52.386;9.980;2023-04-19T16:08:30;12.50;74.20
5429;DHT22;2737;52.386;9.980;2023-04-19T16:10:57;12.40;73.50
5429;DHT22;2737;52.386;9.980;2023-04-19T16:13:24;12.40;73.00
5429;DHT22;2737;52.386;9.980;2023-04-19T16:15:51;12.30;72.40